sensor_id;sensor_type;location;lat;lon;timestamp;pressure;altitude;pressure_sealevel;temperature;humidity
63654;BME280;49809;47.418;19.080;2023-09-18T00:02:23;100767.81;;;16.84;100.00
63654;BME280;49809;47.418;19.080;2023-09-18T00:05:38;100765.69;;;16.81;100.00
63654;BME280;49809;47.418;19.080;2023-09-18T00:09:02;100767.88;;;16.79;100.00
63654;BME280;49809;47.418;19.080;2023-09-18T00:12:27;100759.31;;;16.77;100.00
63654;BME280;49809;47.418;19.080;2023-09-18T00:15:33;100759.37;;;16.72;100.00
63654;BME280;49809;47.418;19.080;2023-09-18T00:18:40;100751.63;;;16.71;100.00
63654;BME280;49809;47.418;19.080;2023-09-18T00:21:50;100749.25;;;16.69;100.00
63654;BME280;49809;47.418;19.080;2023-09-18T00:24:57;100749.50;;;16.68;100.00
63654;BME280;49809;47.418;19.080;2023-09-18T00:28:21;100745.81;;;16.64;100.00
63654;BME280;49809;47.418;19.080;2023-09-18T00:31:29;100746.09;;;16.62;100.00
63654;BME280;49809;47.418;19.080;2023-09-18T00:34:36;100752.00;;;16.59;100.00
63654;BME280;49809;47.418;19.080;2023-09-18T00:37:40;100747.97;;;16.57;100.00
63654;BME280;49809;47.418;19.080;2023-09-18T00:40:44;100751.69;;;16.56;100.00
63654;BME280;49809;47.418;19.080;2023-09-18T00:44:09;100756.56;;;16.53;100.00
63654;BME280;49809;47.418;19.080;2023-09-18T00:47:41;100745.09;;;16.48;100.00
63654;BME280;49809;47.418;19.080;2023-09-18T00:50:48;100750.97;;;16.50;100.00
63654;BME280;49809;47.418;19.080;2023-09-18T00:54:22;100748.31;;;16.50;100.00
63654;BME280;49809;47.418;19.080;2023-09-18T00:57:28;100748.56;;;16.48;100.00
63654;BME280;49809;47.418;19.080;2023-09-18T01:00:53;100746.16;;;16.47;100.00
63654;BME280;49809;47.418;19.080;2023-09-18T01:04:01;100748.56;;;16.48;100.00
63654;BME280;49809;47.418;19.080;2023-09-18T01:07:12;100748.84;;;16.47;100.00
63654;BME280;49809;47.418;19.080;2023-09-18T01:10:17;100740.81;;;16.47;100.00
63654;BME280;49809;47.418;19.080;2023-09-18T01:17:18;100751.53;;;16.42;100.00
63654;BME280;49809;47.418;19.080;2023-09-18T01:20:23;100741.97;;;16.41;100.00
63654;BME280;49809;47.418;19.080;2023-09-18T01:23:33;100742.00;;;16.36;100.00
63654;BME280;49809;47.418;19.080;2023-09-18T01:26:39;100743.34;;;16.33;100.00
63654;BME280;49809;47.418;19.080;2023-09-18T01:29:47;100736.69;;;16.31;100.00
63654;BME280;49809;47.418;19.080;2023-09-18T01:32:56;100729.22;;;16.28;100.00
63654;BME280;49809;47.418;19.080;2023-09-18T01:36:01;100734.06;;;16.26;100.00
63654;BME280;49809;47.418;19.080;2023-09-18T01:39:08;100735.63;;;16.27;100.00
63654;BME280;49809;47.418;19.080;2023-09-18T01:42:13;100739.41;;;16.26;100.00
63654;BME280;49809;47.418;19.080;2023-09-18T01:45:19;100729.25;;;16.23;100.00
63654;BME280;49809;47.418;19.080;2023-09-18T01:48:25;100739.94;;;16.23;100.00
63654;BME280;49809;47.418;19.080;2023-09-18T01:51:52;100738.91;;;16.19;100.00
63654;BME280;49809;47.418;19.080;2023-09-18T01:54:56;100736.22;;;16.19;100.00
63654;BME280;49809;47.418;19.080;2023-09-18T01:58:02;100731.72;;;16.14;100.00
63654;BME280;49809;47.418;19.080;2023-09-18T02:01:07;100731.72;;;16.14;100.00
63654;BME280;49809;47.418;19.080;2023-09-18T02:04:23;100737.09;;;16.09;100.00
63654;BME280;49809;47.418;19.080;2023-09-18T02:08:14;100738.44;;;16.06;100.00
63654;BME280;49809;47.418;19.080;2023-09-18T02:11:43;100733.16;;;16.01;100.00
63654;BME280;49809;47.418;19.080;2023-09-18T02:15:13;100737.94;;;15.99;100.00
63654;BME280;49809;47.418;19.080;2023-09-18T02:19:02;100726.19;;;16.00;100.00
63654;BME280;49809;47.418;19.080;2023-09-18T02:22:08;100738.47;;;16.01;100.00
63654;BME280;49809;47.418;19.080;2023-09-18T02:25:11;100725.63;;;16.03;100.00
63654;BME280;49809;47.418;19.080;2023-09-18T02:28:16;100734.72;;;16.02;100.00
63654;BME280;49809;47.418;19.080;2023-09-18T02:31:21;100736.31;;;16.03;100.00
63654;BME280;49809;47.418;19.080;2023-09-18T02:35:07;100734.19;;;16.05;100.00
63654;BME280;49809;47.418;19.080;2023-09-18T02:38:11;100745.37;;;16.07;100.00
63654;BME280;49809;47.418;19.080;2023-09-18T02:41:14;100743.25;;;16.04;100.00
63654;BME280;49809;47.418;19.080;2023-09-18T02:44:40;100742.69;;;16.07;100.00
63654;BME280;49809;47.418;19.080;2023-09-18T02:47:48;100743.25;;;16.04;100.00
63654;BME280;49809;47.418;19.080;2023-09-18T02:51:12;100745.94;;;16.04;100.00
63654;BME280;49809;47.418;19.080;2023-09-18T02:54:16;100753.94;;;16.04;100.00
63654;BME280;49809;47.418;19.080;2023-09-18T02:57:21;100747.53;;;16.05;100.00
63654;BME280;49809;47.418;19.080;2023-09-18T03:00:26;100749.41;;;16.05;100.00
63654;BME280;49809;47.418;19.080;2023-09-18T03:04:12;100746.47;;;16.06;100.00
63654;BME280;49809;47.418;19.080;2023-09-18T03:07:17;100751.81;;;16.06;100.00
63654;BME280;49809;47.418;19.080;2023-09-18T03:10:22;100750.47;;;16.04;100.00
63654;BME280;49809;47.418;19.080;2023-09-18T03:13:28;100750.19;;;16.05;100.00
63654;BME280;49809;47.418;19.080;2023-09-18T03:16:34;100744.88;;;16.05;100.00
63654;BME280;49809;47.418;19.080;2023-09-18T03:19:40;100742.13;;;16.16;100.00
63654;BME280;49809;47.418;19.080;2023-09-18T03:23:03;100742.97;;;16.11;100.00
63654;BME280;49809;47.418;19.080;2023-09-18T03:26:12;100737.06;;;16.14;100.00
63654;BME280;49809;47.418;19.080;2023-09-18T03:29:16;100730.44;;;16.06;100.00
63654;BME280;49809;47.418;19.080;2023-09-18T03:32:21;100738.44;;;16.12;100.00
63654;BME280;49809;47.418;19.080;2023-09-18T03:35:51;100744.28;;;16.08;100.00
63654;BME280;49809;47.418;19.080;2023-09-18T03:38:58;100728.50;;;16.12;100.00
63654;BME280;49809;47.418;19.080;2023-09-18T03:42:23;100723.50;;;16.05;100.00
63654;BME280;49809;47.418;19.080;2023-09-18T03:45:27;100729.44;;;15.97;100.00
63654;BME280;49809;47.418;19.080;2023-09-18T03:48:33;100734.50;;;15.94;100.00
63654;BME280;49809;47.418;19.080;2023-09-18T03:51:42;100730.22;;;15.93;100.00
63654;BME280;49809;47.418;19.080;2023-09-18T03:55:17;100723.59;;;15.90;100.00
63654;BME280;49809;47.418;19.080;2023-09-18T03:58:49;100726.28;;;15.85;100.00
63654;BME280;49809;47.418;19.080;2023-09-18T04:01:57;100729.50;;;15.82;100.00
63654;BME280;49809;47.418;19.080;2023-09-18T04:05:03;100726.84;;;15.82;100.00
63654;BME280;49809;47.418;19.080;2023-09-18T04:08:12;100727.59;;;15.88;100.00
63654;BME280;49809;47.418;19.080;2023-09-18T04:11:18;100720.91;;;15.90;100.00
63654;BME280;49809;47.418;19.080;2023-09-18T04:15:08;100719.31;;;15.89;100.00
63654;BME280;49809;47.418;19.080;2023-09-18T04:18:12;100716.13;;;15.87;100.00
63654;BME280;49809;47.418;19.080;2023-09-18T04:21:16;100720.72;;;15.82;100.00
63654;BME280;49809;47.418;19.080;2023-09-18T04:24:21;100711.66;;;15.78;100.00
63654;BME280;49809;47.418;19.080;2023-09-18T04:27:32;100712.94;;;15.85;100.00
63654;BME280;49809;47.418;19.080;2023-09-18T04:30:36;100712.91;;;15.90;100.00
63654;BME280;49809;47.418;19.080;2023-09-18T04:33:40;100710.53;;;15.84;100.00
63654;BME280;49809;47.418;19.080;2023-09-18T04:36:44;100712.94;;;15.85;100.00
63654;BME280;49809;47.418;19.080;2023-09-18T04:40:09;100707.06;;;15.83;100.00
63654;BME280;49809;47.418;19.080;2023-09-18T04:43:15;100714.50;;;15.91;100.00
63654;BME280;49809;47.418;19.080;2023-09-18T04:46:47;100715.56;;;15.90;100.00
63654;BME280;49809;47.418;19.080;2023-09-18T04:49:54;100713.91;;;15.99;100.00
63654;BME280;49809;47.418;19.080;2023-09-18T04:53:19;100710.19;;;16.00;100.00
63654;BME280;49809;47.418;19.080;2023-09-18T04:56:23;100723.50;;;16.05;100.00
63654;BME280;49809;47.418;19.080;2023-09-18T04:59:49;100715.97;;;16.13;100.00
63654;BME280;49809;47.418;19.080;2023-09-18T05:03:15;100718.56;;;16.23;100.00
63654;BME280;49809;47.418;19.080;2023-09-18T05:06:19;100702.22;;;16.29;100.00
63654;BME280;49809;47.418;19.080;2023-09-18T05:09:59;100711.53;;;16.32;100.00
63654;BME280;49809;47.418;19.080;2023-09-18T05:13:10;100707.16;;;16.46;100.00
63654;BME280;49809;47.418;19.080;2023-09-18T05:16:41;100714.59;;;16.54;100.00
63654;BME280;49809;47.418;19.080;2023-09-18T05:19:44;100699.84;;;16.62;100.00
63654;BME280;49809;47.418;19.080;2023-09-18T05:23:13;100697.66;;;16.69;100.00
63654;BME280;49809;47.418;19.080;2023-09-18T05:26:51;100700.72;;;16.81;100.00
63654;BME280;49809;47.418;19.080;2023-09-18T05:30:01;100712.50;;;16.80;100.00
63654;BME280;49809;47.418;19.080;2023-09-18T05:33:30;100704.78;;;16.78;100.00
63654;BME280;49809;47.418;19.080;2023-09-18T05:36:34;100717.44;;;16.97;100.00
63654;BME280;49809;47.418;19.080;2023-09-18T05:39:37;100715.56;;;16.97;100.00
63654;BME280;49809;47.418;19.080;2023-09-18T05:43:02;100708.81;;;17.00;100.00
63654;BME280;49809;47.418;19.080;2023-09-18T05:46:06;100702.75;;;17.18;100.00
63654;BME280;49809;47.418;19.080;2023-09-18T05:49:20;100694.91;;;17.26;99.55
63654;BME280;49809;47.418;19.080;2023-09-18T05:52:28;100687.94;;;17.25;99.27
63654;BME280;49809;47.418;19.080;2023-09-18T05:55:46;100688.34;;;17.37;99.25
63654;BME280;49809;47.418;19.080;2023-09-18T06:07:21;100680.75;;;17.68;96.63
63654;BME280;49809;47.418;19.080;2023-09-18T06:10:38;100688.56;;;17.65;96.87
63654;BME280;49809;47.418;19.080;2023-09-18T06:23:10;100687.81;;;18.34;92.57
63654;BME280;49809;47.418;19.080;2023-09-18T06:35:23;100679.00;;;19.07;87.29
63654;BME280;49809;47.418;19.080;2023-09-18T06:39:16;100675.31;;;19.58;86.63
63654;BME280;49809;47.418;19.080;2023-09-18T06:42:49;100673.41;;;19.94;84.45
63654;BME280;49809;47.418;19.080;2023-09-18T06:46:06;100675.56;;;20.06;82.49
63654;BME280;49809;47.418;19.080;2023-09-18T06:49:39;100684.78;;;20.13;81.58
63654;BME280;49809;47.418;19.080;2023-09-18T06:53:56;100687.59;;;20.53;80.70
63654;BME280;49809;47.418;19.080;2023-09-18T06:58:15;100674.22;;;20.61;80.39
63654;BME280;49809;47.418;19.080;2023-09-18T07:02:40;100670.31;;;20.76;79.89
63654;BME280;49809;47.418;19.080;2023-09-18T07:11:34;100687.31;;;21.24;77.14
63654;BME280;49809;47.418;19.080;2023-09-18T07:19:11;100670.75;;;21.57;75.96
63654;BME280;49809;47.418;19.080;2023-09-18T07:27:26;100677.28;;;21.99;73.52
63654;BME280;49809;47.418;19.080;2023-09-18T07:39:39;100672.91;;;23.05;70.66
63654;BME280;49809;47.418;19.080;2023-09-18T07:43:46;100667.16;;;23.35;69.38
63654;BME280;49809;47.418;19.080;2023-09-18T07:48:31;100667.97;;;23.36;68.78
63654;BME280;49809;47.418;19.080;2023-09-18T07:52:03;100667.03;;;23.61;68.36
63654;BME280;49809;47.418;19.080;2023-09-18T07:55:55;100669.28;;;24.13;66.43
63654;BME280;49809;47.418;19.080;2023-09-18T08:05:54;100664.91;;;24.41;63.55
63654;BME280;49809;47.418;19.080;2023-09-18T08:13:53;100649.16;;;24.80;62.93
63654;BME280;49809;47.418;19.080;2023-09-18T08:21:23;100628.91;;;25.62;61.21
63654;BME280;49809;47.418;19.080;2023-09-18T09:40:28;100608.53;;;31.66;43.14
63654;BME280;49809;47.418;19.080;2023-09-18T09:44:44;100608.03;;;30.77;44.08
63654;BME280;49809;47.418;19.080;2023-09-18T09:49:02;100596.28;;;31.38;43.59
63654;BME280;49809;47.418;19.080;2023-09-18T09:53:55;100607.00;;;31.82;42.31
63654;BME280;49809;47.418;19.080;2023-09-18T09:58:29;100590.56;;;31.72;42.67
63654;BME280;49809;47.418;19.080;2023-09-18T10:02:17;100587.06;;;31.78;42.43
63654;BME280;49809;47.418;19.080;2023-09-18T10:11:06;100565.22;;;32.03;41.62
63654;BME280;49809;47.418;19.080;2023-09-18T10:15:20;100553.44;;;31.71;41.46
63654;BME280;49809;47.418;19.080;2023-09-18T10:19:27;100559.50;;;31.22;42.68
63654;BME280;49809;47.418;19.080;2023-09-18T10:24:19;100556.47;;;31.52;42.37
63654;BME280;49809;47.418;19.080;2023-09-18T10:28:51;100549.59;;;32.21;41.23
63654;BME280;49809;47.418;19.080;2023-09-18T10:43:39;100522.94;;;31.83;41.73
63654;BME280;49809;47.418;19.080;2023-09-18T10:52:25;100507.72;;;32.10;40.87
63654;BME280;49809;47.418;19.080;2023-09-18T10:57:13;100505.00;;;32.17;40.46
63654;BME280;49809;47.418;19.080;2023-09-18T11:00:52;100489.72;;;31.95;42.16
63654;BME280;49809;47.418;19.080;2023-09-18T11:04:36;100491.56;;;31.52;42.39
63654;BME280;49809;47.418;19.080;2023-09-18T11:20:45;100486.56;;;31.86;41.37
63654;BME280;49809;47.418;19.080;2023-09-18T11:24:45;100476.41;;;31.90;42.06
63654;BME280;49809;47.418;19.080;2023-09-18T11:28:43;100474.06;;;31.92;40.32
63654;BME280;49809;47.418;19.080;2023-09-18T11:42:31;100453.47;;;33.03;38.46
63654;BME280;49809;47.418;19.080;2023-09-18T11:46:45;100449.12;;;33.19;37.66
63654;BME280;49809;47.418;19.080;2023-09-18T11:51:02;100456.44;;;32.43;39.43
63654;BME280;49809;47.418;19.080;2023-09-18T11:55:21;100451.72;;;32.47;39.07
63654;BME280;49809;47.418;19.080;2023-09-18T12:03:24;100427.66;;;30.81;42.47
63654;BME280;49809;47.418;19.080;2023-09-18T12:07:05;100417.41;;;30.53;42.24
63654;BME280;49809;47.418;19.080;2023-09-18T12:11:09;100411.16;;;30.52;43.04
63654;BME280;49809;47.418;19.080;2023-09-18T12:14:55;100402.75;;;30.20;43.26
63654;BME280;49809;47.418;19.080;2023-09-18T12:18:35;100392.91;;;30.85;42.03
63654;BME280;49809;47.418;19.080;2023-09-18T12:22:29;100397.59;;;30.74;43.16
63654;BME280;49809;47.418;19.080;2023-09-18T12:26:36;100397.53;;;30.59;42.56
63654;BME280;49809;47.418;19.080;2023-09-18T12:30:54;100405.00;;;30.11;42.76
63654;BME280;49809;47.418;19.080;2023-09-18T12:34:28;100401.56;;;29.67;43.56
63654;BME280;49809;47.418;19.080;2023-09-18T12:56:47;100367.94;;;29.52;44.18
63654;BME280;49809;47.418;19.080;2023-09-18T13:00:33;100365.53;;;29.47;43.98
63654;BME280;49809;47.418;19.080;2023-09-18T13:53:46;100298.72;;;29.74;43.07
63654;BME280;49809;47.418;19.080;2023-09-18T14:01:40;100283.38;;;29.08;44.63
63654;BME280;49809;47.418;19.080;2023-09-18T14:04:50;100279.59;;;28.79;44.92
63654;BME280;49809;47.418;19.080;2023-09-18T14:08:32;100271.44;;;28.46;46.12
63654;BME280;49809;47.418;19.080;2023-09-18T14:31:17;100244.84;;;28.69;46.31
63654;BME280;49809;47.418;19.080;2023-09-18T15:44:33;100168.50;;;27.36;48.21
63654;BME280;49809;47.418;19.080;2023-09-18T16:05:18;100142.63;;;27.15;49.12
63654;BME280;49809;47.418;19.080;2023-09-18T16:28:29;100112.53;;;26.33;50.88
63654;BME280;49809;47.418;19.080;2023-09-18T16:40:57;100110.94;;;25.71;54.15
63654;BME280;49809;47.418;19.080;2023-09-18T17:32:34;100083.94;;;24.26;58.74
63654;BME280;49809;47.418;19.080;2023-09-18T17:41:29;100085.13;;;24.13;58.05
63654;BME280;49809;47.418;19.080;2023-09-18T17:45:45;100081.81;;;24.04;58.47
63654;BME280;49809;47.418;19.080;2023-09-18T17:50:02;100083.97;;;23.98;58.30
63654;BME280;49809;47.418;19.080;2023-09-18T17:54:21;100083.19;;;23.98;58.71
63654;BME280;49809;47.418;19.080;2023-09-18T17:58:20;100085.09;;;23.97;58.42
63654;BME280;49809;47.418;19.080;2023-09-18T18:15:05;100064.00;;;24.03;57.61
63654;BME280;49809;47.418;19.080;2023-09-18T18:19:46;100064.72;;;24.00;57.62
63654;BME280;49809;47.418;19.080;2023-09-18T18:24:07;100070.78;;;23.97;57.95
63654;BME280;49809;47.418;19.080;2023-09-18T18:28:12;100061.25;;;23.87;58.21
63654;BME280;49809;47.418;19.080;2023-09-18T18:32:24;100061.88;;;23.80;57.68
63654;BME280;49809;47.418;19.080;2023-09-18T18:36:23;100068.44;;;23.95;57.03
63654;BME280;49809;47.418;19.080;2023-09-18T18:39:59;100069.03;;;23.89;57.38
63654;BME280;49809;47.418;19.080;2023-09-18T18:48:10;100061.19;;;23.83;57.49
63654;BME280;49809;47.418;19.080;2023-09-18T18:51:49;100061.88;;;23.80;56.95
63654;BME280;49809;47.418;19.080;2023-09-18T18:56:05;100063.03;;;23.67;57.70
63654;BME280;49809;47.418;19.080;2023-09-18T19:00:42;100060.16;;;23.60;57.74
63654;BME280;49809;47.418;19.080;2023-09-18T19:05:18;100062.34;;;23.43;58.24
63654;BME280;49809;47.418;19.080;2023-09-18T19:09:37;100062.22;;;23.39;58.48
63654;BME280;49809;47.418;19.080;2023-09-18T19:14:10;100060.66;;;23.38;58.39
63654;BME280;49809;47.418;19.080;2023-09-18T19:18:28;100054.81;;;23.36;58.52
63654;BME280;49809;47.418;19.080;2023-09-18T19:22:07;100056.06;;;23.26;58.78
63654;BME280;49809;47.418;19.080;2023-09-18T19:26:45;100046.87;;;23.43;57.77
63654;BME280;49809;47.418;19.080;2023-09-18T19:31:19;100046.94;;;23.31;58.40
63654;BME280;49809;47.418;19.080;2023-09-18T19:35:17;100045.13;;;23.35;58.13
63654;BME280;49809;47.418;19.080;2023-09-18T19:39:25;100049.63;;;23.31;58.45
63654;BME280;49809;47.418;19.080;2023-09-18T19:43:33;100039.75;;;23.23;58.60
63654;BME280;49809;47.418;19.080;2023-09-18T19:47:05;100032.31;;;23.20;58.38
63654;BME280;49809;47.418;19.080;2023-09-18T19:51:16;100023.19;;;23.24;58.17
63654;BME280;49809;47.418;19.080;2023-09-18T19:54:59;100038.03;;;23.30;57.79
63654;BME280;49809;47.418;19.080;2023-09-18T19:58:28;100021.84;;;23.30;57.66
63654;BME280;49809;47.418;19.080;2023-09-18T20:03:04;100028.72;;;23.28;57.59
63654;BME280;49809;47.418;19.080;2023-09-18T20:07:14;100035.47;;;23.22;58.27
63654;BME280;49809;47.418;19.080;2023-09-18T20:10:51;100027.37;;;23.22;58.07
63654;BME280;49809;47.418;19.080;2023-09-18T20:14:58;100038.09;;;23.18;58.56
63654;BME280;49809;47.418;19.080;2023-09-18T20:18:59;100035.97;;;23.12;58.91
63654;BME280;49809;47.418;19.080;2023-09-18T20:22:45;100031.34;;;23.12;59.03
63654;BME280;49809;47.418;19.080;2023-09-18T20:26:35;100035.50;;;23.10;59.26
63654;BME280;49809;47.418;19.080;2023-09-18T20:30:21;100030.56;;;23.00;59.96
63654;BME280;49809;47.418;19.080;2023-09-18T20:34:08;100024.41;;;22.87;60.64
63654;BME280;49809;47.418;19.080;2023-09-18T20:37:27;100026.09;;;22.91;60.50
63654;BME280;49809;47.418;19.080;2023-09-18T20:41:13;100012.16;;;22.89;61.00
63654;BME280;49809;47.418;19.080;2023-09-18T20:44:44;100016.09;;;22.92;61.09
63654;BME280;49809;47.418;19.080;2023-09-18T20:48:28;100018.66;;;23.01;61.09
63654;BME280;49809;47.418;19.080;2023-09-18T20:51:54;100009.44;;;23.02;61.59
63654;BME280;49809;47.418;19.080;2023-09-18T20:55:26;100011.41;;;23.17;61.64
63654;BME280;49809;47.418;19.080;2023-09-18T20:59:03;100011.19;;;23.10;61.71
63654;BME280;49809;47.418;19.080;2023-09-18T21:02:45;100010.13;;;22.86;61.33
63654;BME280;49809;47.418;19.080;2023-09-18T21:06:22;99997.75;;;22.85;61.83
63654;BME280;49809;47.418;19.080;2023-09-18T21:10:02;100001.59;;;22.84;61.62
63654;BME280;49809;47.418;19.080;2023-09-18T21:13:41;100007.88;;;22.64;62.38
63654;BME280;49809;47.418;19.080;2023-09-18T21:17:29;100004.53;;;22.55;62.94
63654;BME280;49809;47.418;19.080;2023-09-18T21:21:00;99999.78;;;22.52;63.17
63654;BME280;49809;47.418;19.080;2023-09-18T21:24:34;100001.12;;;22.58;63.55
63654;BME280;49809;47.418;19.080;2023-09-18T21:28:12;99997.41;;;22.63;63.82
63654;BME280;49809;47.418;19.080;2023-09-18T21:32:00;99997.66;;;22.58;64.35
63654;BME280;49809;47.418;19.080;2023-09-18T21:35:40;99997.00;;;22.73;64.08
63654;BME280;49809;47.418;19.080;2023-09-18T21:39:15;99998.56;;;22.74;64.33
63654;BME280;49809;47.418;19.080;2023-09-18T21:46:52;100009.47;;;22.77;65.36
63654;BME280;49809;47.418;19.080;2023-09-18T21:50:30;100007.66;;;22.93;64.96
63654;BME280;49809;47.418;19.080;2023-09-18T21:54:06;100010.22;;;23.02;64.82
63654;BME280;49809;47.418;19.080;2023-09-18T21:58:00;99999.50;;;23.06;64.53
63654;BME280;49809;47.418;19.080;2023-09-18T22:01:37;100002.06;;;23.14;64.04
63654;BME280;49809;47.418;19.080;2023-09-18T22:05:21;99999.75;;;23.13;63.81
63654;BME280;49809;47.418;19.080;2023-09-18T22:08:59;99993.87;;;23.11;63.58
63654;BME280;49809;47.418;19.080;2023-09-18T22:12:38;99983.88;;;23.11;63.36
63654;BME280;49809;47.418;19.080;2023-09-18T22:16:25;99988.06;;;23.09;63.43
63654;BME280;49809;47.418;19.080;2023-09-18T22:20:02;99984.59;;;22.96;63.60
63654;BME280;49809;47.418;19.080;2023-09-18T22:23:21;99990.06;;;23.00;63.47
63654;BME280;49809;47.418;19.080;2023-09-18T22:26:57;99997.69;;;23.10;63.13
63654;BME280;49809;47.418;19.080;2023-09-18T22:30:23;100000.88;;;23.00;63.47
63654;BME280;49809;47.418;19.080;2023-09-18T22:33:54;99999.41;;;23.02;63.33
63654;BME280;49809;47.418;19.080;2023-09-18T22:37:28;99992.13;;;22.90;63.71
63654;BME280;49809;47.418;19.080;2023-09-18T22:56:16;99971.69;;;22.77;64.45
63654;BME280;49809;47.418;19.080;2023-09-18T22:59:49;99968.22;;;22.65;64.73
63654;BME280;49809;47.418;19.080;2023-09-18T23:03:34;99975.63;;;22.56;65.04
63654;BME280;49809;47.418;19.080;2023-09-18T23:06:57;99973.03;;;22.47;65.56
63654;BME280;49809;47.418;19.080;2023-09-18T23:10:33;99975.31;;;22.45;65.66
63654;BME280;49809;47.418;19.080;2023-09-18T23:14:05;99967.44;;;22.40;66.17
63654;BME280;49809;47.418;19.080;2023-09-18T23:17:54;99968.78;;;22.34;66.21
63654;BME280;49809;47.418;19.080;2023-09-18T23:21:23;99970.00;;;22.24;66.88
63654;BME280;49809;47.418;19.080;2023-09-18T23:25:12;99962.50;;;22.30;66.83
63654;BME280;49809;47.418;19.080;2023-09-18T23:28:48;99967.62;;;22.23;67.25
63654;BME280;49809;47.418;19.080;2023-09-18T23:32:19;99963.25;;;22.18;67.21
63654;BME280;49809;47.418;19.080;2023-09-18T23:35:57;99966.53;;;22.12;67.50
63654;BME280;49809;47.418;19.080;2023-09-18T23:39:22;99964.84;;;22.07;67.77
63654;BME280;49809;47.418;19.080;2023-09-18T23:43:05;99962.69;;;22.00;67.91
63654;BME280;49809;47.418;19.080;2023-09-18T23:46:34;99961.19;;;21.91;68.25
63654;BME280;49809;47.418;19.080;2023-09-18T23:50:18;99957.91;;;21.85;68.74
63654;BME280;49809;47.418;19.080;2023-09-18T23:53:55;99959.38;;;21.83;68.69
63654;BME280;49809;47.418;19.080;2023-09-18T23:57:33;99961.50;;;21.77;69.55
